Latest Weather Observations for Tibooburra Airport

IDN60801

Issued at 7:33 pm EST Thursday 25 August 2016 (issued every 30 minutes, with the page automatically refreshed every 10 minutes)

About weather observations | Map of weather stations | Latest weather observations for NSW | Other Formats
Station Details ID: 046126 Name: TIBOOBURRA AIRPORT Lat: -29.44 Lon: 142.06 Height: 176.4 m
Data from the previous 72 hours. | See also: Recent months at Tibooburra Airport
Date/Time
EST
Temp
°C
App
Temp
°C
Dew
Point
°C
Rel
Hum
%
Delta-T
°C
Wind Press
QNH
hPa
Press
MSL
hPa
Rain since
9am
mm
Dir  Spd
km/h
Gust
km/h
Spd
kts
Gust
kts
25/07:30pm 13.7 10.2 5.3 57 4.0 NW 13 15 7 8 1018.6 1018.5 0.2
25/07:00pm 13.7 10.8 4.6 54 4.2 N 9 11 5 6 1017.9 1017.8 0.2
25/06:30pm 14.9 13.4 2.8 44 5.5 CALM 0 0 0 0 1017.4 1017.3 0.2
25/06:00pm 15.5 14.1 3.3 44 5.6 CALM 0 0 0 0 1017.2 1017.1 0.2
25/05:30pm 16.1 12.6 1.4 37 6.5 N 9 15 5 8 1016.9 1016.8 0.2
25/05:00pm 16.7 13.7 2.3 38 6.5 ESE 7 13 4 7 1016.7 1016.6 0.2
25/04:30pm 16.8 12.9 1.3 35 6.9 SE 11 19 6 10 1016.4 1016.2 0.2
25/04:00pm 16.7 13.9 3.1 40 6.3 ENE 7 11 4 6 1016.1 1016.0 0.2
25/03:30pm 16.2 12.9 2.2 39 6.3 SSE 9 15 5 8 1016.4 1016.2 0.2
25/03:12pm 16.9 11.5 1.4 35 6.9 SSW 19 39 10 21 1016.4 1016.2 0.0
25/03:00pm 18.0 13.6 0.2 30 7.8 SSW 13 20 7 11 1016.3 1016.1 0.0
25/02:30pm 18.3 15.9 -0.5 28 8.2 NE 2 7 1 4 1016.4 1016.2 0.0
25/02:00pm 18.7 15.4 -0.2 28 8.3 WNW 7 17 4 9 1016.9 1016.8 0.0
25/01:30pm 18.2 15.1 1.3 32 7.6 N 7 15 4 8 1017.3 1017.2 0.0
25/01:00pm 17.4 13.9 1.0 33 7.3 W 9 15 5 8 1017.8 1017.7 0.0
25/12:30pm 17.1 13.6 1.5 35 7.0 WSW 9 17 5 9 1018.0 1017.9 0.0
25/12:00pm 16.8 13.0 2.0 37 6.7 NNW 11 17 6 9 1018.2 1018.1 0.0
25/11:30am 16.2 12.3 3.6 43 5.9 NNW 13 17 7 9 1018.6 1018.5 0.0
25/11:00am 15.1 11.3 3.9 47 5.2 NNW 13 17 7 9 1018.9 1018.8 0.0
25/10:30am 13.9 10.2 4.2 52 4.5 NNW 13 17 7 9 1019.0 1018.9 0.0
25/10:00am 13.2 9.6 5.1 58 3.8 NNW 13 17 7 9 1019.1 1019.0 0.0
25/09:30am 12.5 10.0 4.7 59 3.6 N 7 11 4 6 1018.8 1018.7 0.0
25/09:00am 12.1 9.7 4.3 59 3.6 N 6 9 3 5 1018.7 1018.6 0.2
25/08:30am 12.7 9.7 3.9 55 4.0 N 9 13 5 7 1018.5 1018.4 0.2
25/08:00am 11.4 8.5 4.6 63 3.1 NNW 9 13 5 7 1018.0 1017.9 0.2
25/07:30am 7.0 4.4 4.3 83 1.2 NNW 7 9 4 5 1017.7 1017.6 0.2
25/07:00am 6.3 3.6 3.8 84 1.1 NNE 7 9 4 5 1017.3 1017.2 0.2
25/06:30am 5.6 4.1 3.1 84 1.0 CALM 0 0 0 0 1016.9 1016.8 0.2
25/06:00am 6.4 3.6 3.0 79 1.4 NNW 7 9 4 5 1016.6 1016.5 0.2
25/05:30am 6.7 4.9 3.5 80 1.4 NNW 2 7 1 4 1016.0 1015.9 0.2
25/05:00am 7.1 5.8 3.9 80 1.4 CALM 0 0 0 0 1015.7 1015.6 0.2
25/04:30am 6.6 4.1 3.9 83 1.2 NW 6 7 3 4 1015.5 1015.4 0.2
25/04:00am 5.7 4.3 3.7 87 0.8 CALM 0 0 0 0 1015.4 1015.3 0.2
25/03:30am 5.2 1.9 2.2 81 1.2 E 9 9 5 5 1015.3 1015.2 0.2
25/03:00am 8.6 5.5 3.8 72 2.1 W 9 9 5 5 1015.3 1015.2 0.2
25/02:30am 7.9 4.8 3.8 75 1.8 W 9 11 5 6 1015.4 1015.3 0.2
25/02:00am 8.2 5.5 3.7 73 2.0 W 7 9 4 5 1015.5 1015.4 0.2
25/01:30am 8.3 5.3 3.9 74 1.9 W 9 11 5 6 1015.5 1015.4 0.2
25/01:00am 7.8 4.4 3.8 76 1.7 W 11 13 6 7 1015.6 1015.5 0.2
25/12:30am 8.1 5.6 3.8 74 1.9 WSW 6 6 3 3 1015.6 1015.5 0.2
25/12:00am 8.6 5.9 3.6 71 2.2 WSW 7 9 4 5 1015.8 1015.7 0.2
 
Date/Time
EST
Temp
°C
App
Temp
°C
Dew
Point
°C
Rel
Hum
%
Delta-T
°C
Wind Press
QNH
hPa
Press
MSL
hPa
Rain since
9am
mm
Dir  Spd
km/h
Gust
km/h
Spd
kts
Gust
kts
24/11:30pm 8.3 5.6 3.8 73 2.0 WSW 7 9 4 5 1015.9 1015.8 0.2
24/11:00pm 9.1 6.4 3.9 70 2.3 WSW 7 9 4 5 1016.0 1015.9 0.2
24/10:30pm 9.5 6.5 4.3 70 2.3 WSW 9 9 5 5 1016.0 1015.9 0.2
24/10:00pm 9.3 6.3 4.1 70 2.3 WSW 9 11 5 6 1016.0 1015.9 0.2
24/09:30pm 10.2 7.3 4.4 67 2.6 SW 9 9 5 5 1015.9 1015.8 0.2
24/09:00pm 10.8 8.2 4.3 64 2.9 SSW 7 7 4 4 1015.8 1015.7 0.2
24/08:30pm 11.1 8.6 4.6 64 3.0 WSW 7 9 4 5 1015.7 1015.6 0.2
24/08:00pm 11.3 8.7 4.3 62 3.2 SSW 7 9 4 5 1015.4 1015.3 0.2
24/07:30pm 12.2 8.8 4.2 58 3.6 S 11 15 6 8 1015.2 1015.1 0.2
24/07:00pm 13.1 9.3 4.0 54 4.2 S 13 15 7 8 1014.9 1014.8 0.2
24/06:30pm 13.8 9.6 3.9 51 4.5 S 15 20 8 11 1014.5 1014.4 0.2
24/06:00pm 14.8 11.0 3.9 48 5.0 S 13 19 7 10 1014.1 1014.0 0.2
24/05:30pm 15.0 10.5 4.1 48 5.1 SSE 17 24 9 13 1013.6 1013.5 0.2
24/05:00pm 16.5 10.0 2.5 39 6.4 SSW 26 33 14 18 1013.1 1013.0 0.2
24/04:30pm 16.2 12.0 3.6 43 5.9 SSW 15 26 8 14 1012.8 1012.7 0.2
24/04:00pm 15.6 12.7 4.9 49 5.1 SSW 9 15 5 8 1012.7 1012.6 0.2
24/03:30pm 15.2 11.1 6.2 55 4.4 SSW 17 46 9 25 1012.6 1012.5 0.2
24/03:00pm 14.0 11.6 6.8 62 3.5 SE 9 13 5 7 1012.4 1012.3 0.2
24/02:30pm 12.6 8.6 8.1 74 2.2 SSE 19 26 10 14 1012.8 1012.7 0.2
24/02:00pm 15.8 11.2 5.7 51 4.9 SSE 19 30 10 16 1012.7 1012.6 0.0
24/01:30pm 15.3 9.2 4.7 49 5.0 SW 26 33 14 18 1012.9 1012.8 0.0
24/01:00pm 15.4 9.6 4.2 47 5.2 SSW 24 32 13 17 1013.1 1013.0 0.0
24/12:30pm 15.0 10.2 5.8 54 4.4 SW 20 30 11 16 1013.4 1013.3 0.0
24/12:00pm 14.1 8.5 5.2 55 4.2 SSW 24 30 13 16 1013.8 1013.7 0.0
24/11:30am 14.6 10.1 6.2 57 4.1 SSW 19 30 10 16 1013.9 1013.8 0.0
24/11:00am 14.2 9.9 6.8 61 3.6 S 19 30 10 16 1014.1 1014.0 0.0
24/10:30am 13.5 9.1 7.5 67 3.0 S 20 28 11 15 1014.3 1014.2 0.0
24/10:00am 12.4 9.0 7.7 73 2.3 S 15 19 8 10 1014.4 1014.3 0.0
24/09:30am 11.3 8.3 7.8 79 1.7 S 13 17 7 9 1014.3 1014.2 0.0
24/09:00am 10.8 7.5 7.9 82 1.4 S 15 17 8 9 1014.3 1014.2 0.0
24/08:30am 10.4 7.0 7.8 84 1.3 S 15 17 8 9 1013.8 1013.7 0.0
24/08:00am 9.9 6.5 7.7 86 1.1 S 15 19 8 10 1013.5 1013.4 0.0
24/07:30am 9.8 6.5 7.9 88 0.9 S 15 20 8 11 1013.2 1013.1 0.0
24/07:00am 9.7 6.7 7.8 88 0.9 S 13 17 7 9 1013.1 1013.0 0.0
24/06:30am 9.8 6.8 7.9 88 0.9 S 13 17 7 9 1012.7 1012.6 0.0
24/06:00am 9.8 7.3 8.1 89 0.8 S 11 13 6 7 1012.4 1012.3 0.0
24/05:30am 9.8 6.8 7.7 87 1.0 S 13 15 7 8 1012.1 1012.0 0.0
24/05:00am 9.7 6.3 7.6 87 1.0 S 15 19 8 10 1011.3 1011.1 0.0
24/04:30am 9.8 6.8 7.6 86 1.1 SSE 13 20 7 11 1011.2 1011.0 0.0
24/04:00am 9.9 6.9 7.5 85 1.2 S 13 17 7 9 1011.6 1011.4 0.0
24/03:30am 10.0 6.9 7.3 83 1.3 S 13 17 7 9 1011.6 1011.4 0.0
24/03:00am 10.1 7.4 7.2 82 1.4 S 11 15 6 8 1011.9 1011.8 0.0
24/02:30am 10.0 6.9 7.3 83 1.3 S 13 19 7 10 1011.8 1011.7 0.0
24/02:00am 10.1 7.0 7.2 82 1.4 SSW 13 17 7 9 1012.2 1012.1 0.0
24/01:30am 10.1 7.8 7.3 83 1.3 SSE 9 11 5 6 1012.2 1012.1 0.0
24/01:00am 10.0 6.9 7.1 82 1.4 ESE 13 15 7 8 1012.1 1012.0 0.0
24/12:30am 10.4 8.1 7.3 81 1.5 SE 9 13 5 7 1012.7 1012.6 0.0
24/12:00am 10.5 7.4 7.2 80 1.6 ESE 13 15 7 8 1012.6 1012.5 0.0
 
Date/Time
EST
Temp
°C
App
Temp
°C
Dew
Point
°C
Rel
Hum
%
Delta-T
°C
Wind Press
QNH
hPa
Press
MSL
hPa
Rain since
9am
mm
Dir  Spd
km/h
Gust
km/h
Spd
kts
Gust
kts
23/11:30pm 10.7 7.5 7.0 78 1.8 ESE 13 15 7 8 1013.4 1013.3 0.0
23/11:00pm 11.0 7.9 7.1 77 1.9 ESE 13 19 7 10 1013.7 1013.6 0.0
23/10:30pm 11.2 7.6 6.9 75 2.1 SE 15 20 8 11 1014.0 1013.9 0.0
23/10:00pm 11.4 7.8 6.9 74 2.2 ESE 15 19 8 10 1014.2 1014.1 0.0
23/09:30pm 11.3 8.6 7.2 76 2.0 ESE 11 15 6 8 1014.2 1014.1 0.0
23/09:00pm 11.1 8.8 7.4 78 1.8 ESE 9 11 5 6 1014.4 1014.3 0.0
23/08:30pm 10.9 8.9 7.2 78 1.8 ENE 7 9 4 5 1014.4 1014.3 0.0
23/08:00pm 11.2 8.4 6.9 75 2.1 SE 11 13 6 7 1013.8 1013.7 0.0
23/07:30pm 11.6 8.8 6.9 73 2.3 ENE 11 13 6 7 1013.6 1013.5 0.0
23/07:00pm 11.8 8.2 6.7 71 2.4 E 15 19 8 10 1013.2 1013.1 0.0
23/06:30pm 12.1 8.0 6.4 68 2.7 ESE 17 20 9 11 1012.4 1012.3 0.0
23/06:00pm 12.4 7.9 6.2 66 3.0 ESE 19 22 10 12 1012.3 1012.2 0.0
23/05:30pm 12.6 7.9 6.2 65 3.1 ESE 20 26 11 14 1012.0 1011.9 0.0
23/05:00pm 12.9 8.3 6.3 64 3.2 ESE 20 26 11 14 1012.0 1011.9 0.0
23/04:30pm 13.1 9.0 6.2 63 3.3 ESE 17 22 9 12 1012.5 1012.4 0.0
23/04:00pm 13.3 8.9 6.4 63 3.3 ESE 19 24 10 13 1012.4 1012.3 0.0
23/03:30pm 12.9 8.3 6.3 64 3.2 ESE 20 26 11 14 1011.5 1011.3 0.0
23/03:00pm 12.9 8.9 6.5 65 3.1 ESE 17 24 9 13 1012.3 1012.2 0.0
23/02:30pm 12.3 7.7 6.6 68 2.7 ESE 20 24 11 13 1012.1 1012.0 0.0
23/02:00pm 12.6 6.6 6.9 68 2.8 E 28 35 15 19 1012.0 1011.9 0.0
23/01:30pm 12.4 6.8 7.1 70 2.6 E 26 32 14 17 1013.0 1012.9 0.0
23/01:00pm 12.1 5.7 7.0 71 2.5 E 30 37 16 20 1013.2 1013.1 0.0
23/12:30pm 11.5 5.9 7.2 75 2.1 E 26 32 14 17 1014.9 1014.8 0.0
23/12:00pm 11.3 6.9 7.4 77 1.9 ENE 20 30 11 16 1015.4 1015.3 0.0
23/11:30am 11.0 5.5 7.5 79 1.7 E 26 30 14 16 1015.2 1015.1 0.0
23/11:00am 10.9 4.7 7.8 81 1.5 E 30 37 16 20 1014.5 1014.4 0.0
23/10:30am 10.3 4.7 8.6 89 0.8 E 28 35 15 19 1015.1 1015.0 0.0
23/10:00am 10.0 5.0 9.5 97 0.3 E 26 32 14 17 1015.1 1015.0 0.0
23/09:30am 9.3 4.6 9.2 99 0.0 ESE 24 30 13 16 1015.2 1015.1 0.0
23/09:00am 8.4 5.2 8.3 99 0.0 ESE 15 19 8 10 1016.3 1016.1 0.4
23/08:30am 7.8 4.4 7.8 100 0.0 ESE 15 19 8 10 1015.6 1015.5 0.4
23/08:00am 7.4 3.6 7.4 100 0.0 E 17 20 9 11 1015.6 1015.5 0.4
23/07:30am 7.2 2.9 7.1 99 0.0 ESE 19 26 10 14 1015.7 1015.6 0.4
23/07:00am 7.0 2.1 6.9 99 0.0 ESE 22 30 12 16 1015.5 1015.4 0.4
23/06:30am 7.6 3.2 7.5 99 0.0 ESE 20 28 11 15 1015.2 1015.1 0.4
23/06:00am 7.8 4.4 7.7 99 0.0 SE 15 20 8 11 1013.6 1013.5 0.4
23/05:30am 7.5 4.0 7.4 99 0.0 SSE 15 20 8 11 1014.1 1014.0 0.4
23/05:00am 6.9 4.1 6.8 99 0.0 S 11 15 6 8 1013.6 1013.5 0.4
23/04:30am 6.8 4.7 6.7 99 0.0 ESE 7 9 4 5 1014.6 1014.5 0.4
23/04:00am 6.7 4.6 6.6 99 0.0 SE 7 9 4 5 1014.5 1014.4 0.4
23/03:30am 6.8 4.3 6.7 99 0.0 ESE 9 11 5 6 1013.4 1013.3 0.4
23/03:00am 6.6 5.0 6.5 99 0.0 ESE 4 7 2 4 1014.3 1014.2 0.4
23/02:30am 7.2 5.4 7.1 99 0.0 SE 6 9 3 5 1013.9 1013.8 0.4
23/02:00am 7.1 4.7 7.0 99 0.0 SSE 9 13 5 7 1013.8 1013.7 0.4
23/01:30am 7.2 4.4 7.1 99 0.0 SSE 11 13 6 7 1013.9 1013.8 0.4
23/01:00am 7.4 5.4 7.0 97 0.2 SSE 7 11 4 6 1014.4 1014.3 0.4
23/12:30am 7.9 5.6 7.3 96 0.3 SSE 9 9 5 5 1014.7 1014.6 0.4
23/12:00am 8.2 5.9 7.4 95 0.4 S 9 11 5 6 1015.1 1015.0 0.4
 
Date/Time
EST
Temp
°C
App
Temp
°C
Dew
Point
°C
Rel
Hum
%
Delta-T
°C
Wind Press
QNH
hPa
Press
MSL
hPa
Rain since
9am
mm
Dir  Spd
km/h
Gust
km/h
Spd
kts
Gust
kts
22/11:30pm 8.7 6.5 7.9 95 0.4 S 9 11 5 6 1015.3 1015.2 0.4
22/11:00pm 8.7 6.9 7.8 94 0.4 SSW 7 9 4 5 1015.3 1015.2 0.4
22/10:30pm 9.1 6.9 7.7 91 0.7 S 9 11 5 6 1015.3 1015.2 0.4
22/10:00pm 9.7 8.5 8.0 89 0.8 S 4 7 2 4 1015.4 1015.3 0.4
22/09:30pm 9.9 8.1 8.0 88 0.9 SSE 7 9 4 5 1015.1 1015.0 0.4
22/09:00pm 10.2 8.1 8.1 87 1.0 S 9 11 5 6 1014.7 1014.6 0.4
22/08:30pm 10.7 8.2 8.3 85 1.2 S 11 13 6 7 1014.3 1014.2 0.4
22/08:00pm 11.0 8.5 8.2 83 1.4 S 11 11 6 6 1014.2 1014.1 0.4

Other Formats:

Comma delimited format used in spreadsheet applications
http://www.bom.gov.au/fwo/IDN60801/IDN60801.95485.axf

JavaScript Object Notation format (JSON) in row-major order
http://www.bom.gov.au/fwo/IDN60801/IDN60801.95485.json